Terminal Aerodrome Forecast
Issued by NWS Pocatello, ID

Home | Current Version | Previous Version | Text Only | Print | Product List | Glossary On
Versions: 1 2 3 4 5 6 7 8 9 10 11 12 13 14 15 16 17 18 19 20 21 22
982
FTUS45 KPIH 240540
TAFBYI
TAF
KBYI 240540Z 2406/2506 15010KT P6SM SCT110 BKN150 OVC200
     FM250300 19010KT P6SM VCSH FEW050 BKN100 OVC150=

USA.gov is the U.S. government's official web portal to all federal, state and local government web resources and services.